Time;durP1;ratioP1;P1;durP2;ratioP2;P2;SDS_P1;SDS_P2;PMS_P1;PMS_P2;Temp;Humidity;BMP_temperature;BMP_pressure;BME280_temperature;BME280_humidity;BME280_pressure;Samples;Min_cycle;Max_cycle;Signal;HPM_P1;HPM_P2
2020/12/23 00:00:49;;;;;;;;;;;;;;;;;;6305747;22;19911;-81
2020/12/23 00:03:15;;;;;;;;;;;;;;;;;;6305657;22;20402;-82
2020/12/23 00:05:41;;;;;;;;;;;;;;;;;;6305602;22;19977;-81
2020/12/23 00:08:07;;;;;;;;;;;;;;;;;;6303908;22;20213;-82
2020/12/23 00:10:33;;;;;;;;;;;;;;;;;;6304082;22;20027;-82
2020/12/23 00:12:59;;;;;;;;;;;;;;;;;;6305738;22;19899;-82
2020/12/23 00:15:25;;;;;;;;;;;;;;;;;;6305474;22;20238;-82
2020/12/23 00:17:51;;;;;;;;;;;;;;;;;;6305509;22;20005;-82
2020/12/23 00:20:16;;;;;;;;;;;;;;;;;;6305105;22;19898;-82
2020/12/23 00:22:42;;;;;;;;;;;;;;;;;;6304448;22;19902;-82
2020/12/23 00:25:08;;;;;;;;;;;;;;;;;;6303558;22;19943;-82
2020/12/23 00:27:34;;;;;;;;;;;;;;;;;;6305105;22;19898;-82
2020/12/23 00:30:00;;;;;;;;;;;;;;;;;;6305591;22;19899;-82
2020/12/23 00:32:26;;;;;;;;;;;;;;;;;;6304999;22;19909;-82
2020/12/23 00:34:52;;;;;;;;;;;;;;;;;;6305274;22;19956;-82
2020/12/23 00:37:18;;;;;;;;;;;;;;;;;;6305051;22;19938;-82
2020/12/23 00:39:44;;;;;;;;;;;;;;;;;;6305226;22;19910;-82
2020/12/23 00:42:09;;;;;;;;;;;;;;;;;;6304913;22;19907;-82
2020/12/23 00:44:35;;;;;;;;;;;;;;;;;;6305414;22;19910;-82
2020/12/23 00:47:01;;;;;;;;;;;;;;;;;;6304978;22;19906;-82
2020/12/23 00:49:27;;;;;;;;;;;;;;;;;;6304799;22;19903;-82
2020/12/23 00:51:53;;;;;;;;;;;;;;;;;;6305240;22;19902;-82
2020/12/23 00:54:19;;;;;;;;;;;;;;;;;;6305254;22;19956;-82
2020/12/23 00:56:45;;;;;;;;;;;;;;;;;;6305248;22;19974;-82
2020/12/23 00:59:11;;;;;;;;;;;;;;;;;;6305063;22;19898;-82
2020/12/23 01:01:37;;;;;;;;;;;;;;;;;;6305092;22;19957;-83
2020/12/23 01:04:03;;;;;;;;;;;;;;;;;;6305109;22;19956;-82
2020/12/23 01:06:28;;;;;;;;;;;;;;;;;;6304882;22;20291;-82
2020/12/23 01:08:54;;;;;;;;;;;;;;;;;;6305185;22;19899;-82
2020/12/23 01:11:20;;;;;;;;;;;;;;;;;;6305028;22;19899;-82
2020/12/23 01:13:46;;;;;;;;;;;;;;;;;;6305040;22;19899;-82
2020/12/23 01:16:12;;;;;;;;;;;;;;;;;;6304716;22;19910;-82
2020/12/23 01:18:38;;;;;;;;;;;;;;;;;;6305250;22;19899;-82
2020/12/23 01:21:04;;;;;;;;;;;;;;;;;;6304858;22;19906;-82
2020/12/23 01:23:30;;;;;;;;;;;;;;;;;;6304941;22;19968;-82
2020/12/23 01:25:56;;;;;;;;;;;;;;;;;;6304876;22;19903;-82
2020/12/23 01:28:21;;;;;;;;;;;;;;;;;;6304961;22;19956;-82
2020/12/23 01:30:47;;;;;;;;;;;;;;;;;;6305201;22;20251;-82
2020/12/23 01:33:13;;;;;;;;;;;;;;;;;;6304071;22;20428;-82
2020/12/23 01:35:39;;;;;;;;;;;;;;;;;;6304232;22;19906;-82
2020/12/23 01:38:05;;;;;;;;;;;;;;;;;;6305010;22;20308;-82
2020/12/23 01:40:31;;;;;;;;;;;;;;;;;;6306204;22;19915;-82
2020/12/23 01:42:57;;;;;;;;;;;;;;;;;;6307229;22;19926;-82
2020/12/23 01:45:23;;;;;;;;;;;;;;;;;;6306834;22;19977;-82
2020/12/23 01:47:48;;;;;;;;;;;;;;;;;;6306888;22;19899;-83
2020/12/23 01:50:14;;;;;;;;;;;;;;;;;;6308427;22;19899;-83
2020/12/23 01:52:40;;;;;;;;;;;;;;;;;;6305827;22;19902;-83
2020/12/23 01:55:06;;;;;;;;;;;;;;;;;;6306348;22;19903;-83
2020/12/23 01:57:32;;;;;;;;;;;;;;;;;;6306635;22;19960;-82
2020/12/23 01:59:58;;;;;;;;;;;;;;;;;;6306186;22;20334;-83
2020/12/23 02:02:24;;;;;;;;;;;;;;;;;;6306452;22;19911;-82
2020/12/23 02:04:50;;;;;;;;;;;;;;;;;;6306501;22;20311;-83
2020/12/23 02:07:16;;;;;;;;;;;;;;;;;;6306617;22;19978;-83
2020/12/23 02:09:41;;;;;;;;;;;;;;;;;;6306578;22;19931;-83
2020/12/23 02:12:07;;;;;;;;;;;;;;;;;;6306510;22;20362;-82
2020/12/23 02:14:33;;;;;;;;;;;;;;;;;;6306560;22;19910;-83
2020/12/23 02:16:59;;;;;;;;;;;;;;;;;;6306380;22;20275;-83
2020/12/23 02:19:25;;;;;;;;;;;;;;;;;;6306435;22;19953;-82
2020/12/23 02:21:51;;;;;;;;;;;;;;;;;;6306417;22;19911;-82
2020/12/23 02:24:17;;;;;;;;;;;;;;;;;;6306730;22;19899;-82
2020/12/23 02:26:43;;;;;;;;;;;;;;;;;;6305034;22;20344;-82
2020/12/23 02:29:09;;;;;;;;;;;;;;;;;;6306512;22;19978;-83
2020/12/23 02:31:34;;;;;;;;;;;;;;;;;;6306425;22;19952;-83
2020/12/23 02:34:00;;;;;;;;;;;;;;;;;;6306731;22;19899;-82
2020/12/23 02:36:26;;;;;;;;;;;;;;;;;;6306562;22;19934;-82
2020/12/23 02:38:52;;;;;;;;;;;;;;;;;;6306520;22;19906;-82
2020/12/23 02:41:18;;;;;;;;;;;;;;;;;;6306178;22;20350;-82
2020/12/23 02:43:44;;;;;;;;;;;;;;;;;;6306841;22;19899;-82
2020/12/23 02:46:10;;;;;;;;;;;;;;;;;;6306505;22;19899;-82
2020/12/23 02:48:36;;;;;;;;;;;;;;;;;;6306344;22;19899;-82
2020/12/23 02:51:02;;;;;;;;;;;;;;;;;;6306273;22;19903;-82
2020/12/23 02:53:27;;;;;;;;;;;;;;;;;;6306182;22;20391;-82
2020/12/23 02:55:54;;;;;;;;;;;;;;;;;;6304732;22;19903;-83
2020/12/23 02:58:19;;;;;;;;;;;;;;;;;;6306525;22;20324;-82
2020/12/23 03:00:45;;;;;;;;;;;;;;;;;;6306012;22;19910;-82
2020/12/23 03:03:11;;;;;;;;;;;;;;;;;;6306059;22;20364;-83
2020/12/23 03:05:37;;;;;;;;;;;;;;;;;;6306112;22;19903;-82
2020/12/23 03:08:03;;;;;;;;;;;;;;;;;;6306581;22;19910;-83
2020/12/23 03:10:29;;;;;;;;;;;;;;;;;;6304651;22;19922;-83
2020/12/23 03:12:55;;;;;;;;;;;;;;;;;;6304681;22;19949;-82
2020/12/23 03:15:21;;;;;;;;;;;;;;;;;;6306107;22;19934;-82
2020/12/23 03:17:47;;;;;;;;;;;;;;;;;;6306164;22;20454;-82
2020/12/23 03:20:12;;;;;;;;;;;;;;;;;;6306009;22;19910;-81
2020/12/23 03:22:38;;;;;;;;;;;;;;;;;;6305993;22;20243;-81
2020/12/23 03:25:04;;;;;;;;;;;;;;;;;;6306071;22;19899;-82
2020/12/23 03:27:30;;;;;;;;;;;;;;;;;;6306021;22;19903;-82
2020/12/23 03:29:56;;;;;;;;;;;;;;;;;;6306281;22;19899;-82
2020/12/23 03:32:22;;;;;;;;;;;;;;;;;;6305930;22;19899;-82
2020/12/23 03:34:48;;;;;;;;;;;;;;;;;;6306102;22;19910;-82
2020/12/23 03:37:14;;;;;;;;;;;;;;;;;;6304195;22;20320;-82
2020/12/23 03:39:39;;;;;;;;;;;;;;;;;;6305715;22;19910;-83
2020/12/23 03:42:05;;;;;;;;;;;;;;;;;;6305822;22;20460;-82
2020/12/23 03:44:31;;;;;;;;;;;;;;;;;;6305713;22;19939;-82
2020/12/23 03:46:57;;;;;;;;;;;;;;;;;;6306231;22;19899;-82
2020/12/23 03:49:23;;;;;;;;;;;;;;;;;;6305976;22;20453;-83
2020/12/23 03:51:49;;;;;;;;;;;;;;;;;;6305956;22;19899;-83
2020/12/23 03:54:15;;;;;;;;;;;;;;;;;;6305960;22;20306;-83
2020/12/23 03:56:41;;;;;;;;;;;;;;;;;;6304834;22;19978;-83
2020/12/23 03:59:07;;;;;;;;;;;;;;;;;;6305838;22;19903;-82
2020/12/23 04:01:33;;;;;;;;;;;;;;;;;;6303744;22;19971;-83
2020/12/23 04:03:58;;;;;;;;;;;;;;;;;;6304507;22;19948;-83
2020/12/23 04:06:24;;;;;;;;;;;;;;;;;;6305883;22;19901;-82
2020/12/23 04:08:50;;;;;;;;;;;;;;;;;;6304206;22;20280;-82
2020/12/23 04:11:16;;;;;;;;;;;;;;;;;;6305544;22;19899;-82
2020/12/23 04:13:42;;;;;;;;;;;;;;;;;;6305586;22;19899;-83
2020/12/23 04:16:08;;;;;;;;;;;;;;;;;;6305470;22;20355;-82
2020/12/23 04:18:34;;;;;;;;;;;;;;;;;;6305609;22;19903;-82
2020/12/23 04:21:00;;;;;;;;;;;;;;;;;;6305636;22;19946;-80
2020/12/23 04:23:26;;;;;;;;;;;;;;;;;;6303877;22;19952;-81
2020/12/23 04:25:51;;;;;;;;;;;;;;;;;;6305498;22;19955;-83
2020/12/23 04:28:17;;;;;;;;;;;;;;;;;;6305423;22;19922;-83
2020/12/23 04:30:47;;;;;;;;;;;;;;;;;;6305542;22;20443;-83
2020/12/23 04:33:13;;;;;;;;;;;;;;;;;;6305921;22;19903;-83
2020/12/23 04:35:39;;;;;;;;;;;;;;;;;;6305245;22;20354;-83
2020/12/23 04:38:04;;;;;;;;;;;;;;;;;;6305530;22;19899;-81
2020/12/23 04:40:30;;;;;;;;;;;;;;;;;;6305206;22;19995;-83
2020/12/23 04:42:56;;;;;;;;;;;;;;;;;;6305717;22;19911;-80
2020/12/23 04:45:22;;;;;;;;;;;;;;;;;;6305290;22;20304;-83
2020/12/23 04:47:48;;;;;;;;;;;;;;;;;;6305700;22;19899;-83
2020/12/23 04:50:15;;;;;;;;;;;;;;;;;;6305270;22;19906;-83
2020/12/23 04:52:40;;;;;;;;;;;;;;;;;;6305476;22;20311;-80
2020/12/23 04:55:06;;;;;;;;;;;;;;;;;;6305392;22;19945;-81
2020/12/23 04:57:35;;;;;;;;;;;;;;;;;;6305382;22;19973;-81
2020/12/23 05:00:01;;;;;;;;;;;;;;;;;;6305442;22;19898;-81
2020/12/23 05:02:27;;;;;;;;;;;;;;;;;;6305111;22;19907;-82
2020/12/23 05:04:53;;;;;;;;;;;;;;;;;;6305301;22;19972;-82
2020/12/23 05:07:20;;;;;;;;;;;;;;;;;;6305237;22;20270;-81
2020/12/23 05:09:45;;;;;;;;;;;;;;;;;;6305441;22;20536;-81
2020/12/23 05:12:11;;;;;;;;;;;;;;;;;;6305511;22;19899;-82
2020/12/23 05:14:37;;;;;;;;;;;;;;;;;;6307656;22;19934;-81
2020/12/23 05:17:03;;;;;;;;;;;;;;;;;;6307272;22;19913;-81
2020/12/23 05:19:29;;;;;;;;;;;;;;;;;;6307124;22;19906;-81
2020/12/23 05:21:55;;;;;;;;;;;;;;;;;;6307405;22;20312;-81
2020/12/23 05:24:21;;;;;;;;;;;;;;;;;;6307513;22;20196;-81
2020/12/23 05:26:47;;;;;;;;;;;;;;;;;;6307204;22;20421;-81
2020/12/23 05:29:13;;;;;;;;;;;;;;;;;;6307404;22;19903;-81
2020/12/23 05:31:39;;;;;;;;;;;;;;;;;;6305965;22;20304;-81
2020/12/23 05:34:05;;;;;;;;;;;;;;;;;;6307715;22;20232;-81
2020/12/23 05:36:31;;;;;;;;;;;;;;;;;;6307122;22;19942;-81
2020/12/23 05:38:56;;;;;;;;;;;;;;;;;;6307113;22;19907;-81
2020/12/23 05:41:22;;;;;;;;;;;;;;;;;;6306725;22;19910;-81
2020/12/23 05:43:48;;;;;;;;;;;;;;;;;;6307219;22;19899;-81
2020/12/23 05:46:14;;;;;;;;;;;;;;;;;;6306836;22;20224;-81
2020/12/23 05:48:40;;;;;;;;;;;;;;;;;;6306990;22;19903;-81
2020/12/23 05:51:06;;;;;;;;;;;;;;;;;;6307285;22;19903;-81
2020/12/23 05:53:33;;;;;;;;;;;;;;;;;;6306870;22;19934;-81
2020/12/23 05:55:59;;;;;;;;;;;;;;;;;;6307009;22;20298;-81
2020/12/23 05:58:25;;;;;;;;;;;;;;;;;;6306901;22;19934;-81
2020/12/23 06:00:51;;;;;;;;;;;;;;;;;;6306738;22;19917;-82
2020/12/23 06:03:17;;;;;;;;;;;;;;;;;;6306806;22;19900;-82
2020/12/23 06:05:43;;;;;;;;;;;;;;;;;;6307028;22;20044;-82
2020/12/23 06:08:09;;;;;;;;;;;;;;;;;;6307173;22;20025;-81
2020/12/23 06:10:35;;;;;;;;;;;;;;;;;;6306780;22;19931;-81
2020/12/23 06:13:01;;;;;;;;;;;;;;;;;;6307035;22;19905;-81
2020/12/23 06:15:27;;;;;;;;;;;;;;;;;;6306516;22;19902;-81
2020/12/23 06:17:53;;;;;;;;;;;;;;;;;;6306866;22;19903;-81
2020/12/23 06:20:19;;;;;;;;;;;;;;;;;;6307972;22;19906;-81
2020/12/23 06:22:45;;;;;;;;;;;;;;;;;;6308530;22;19910;-82
2020/12/23 06:25:11;;;;;;;;;;;;;;;;;;6306791;22;19981;-82
2020/12/23 06:27:37;;;;;;;;;;;;;;;;;;6306533;22;19921;-81
2020/12/23 06:30:03;;;;;;;;;;;;;;;;;;6306595;22;20239;-81
2020/12/23 06:32:29;;;;;;;;;;;;;;;;;;6306699;22;19902;-80
2020/12/23 06:34:55;;;;;;;;;;;;;;;;;;6307073;22;19944;-81
2020/12/23 06:37:21;;;;;;;;;;;;;;;;;;6306513;22;19937;-81
2020/12/23 06:39:47;;;;;;;;;;;;;;;;;;6304836;22;20027;-81
2020/12/23 06:42:12;;;;;;;;;;;;;;;;;;6306471;22;19943;-81
2020/12/23 06:44:38;;;;;;;;;;;;;;;;;;6306707;22;19977;-82
2020/12/23 06:47:04;;;;;;;;;;;;;;;;;;6306583;22;20292;-81
2020/12/23 06:49:30;;;;;;;;;;;;;;;;;;6306250;22;19934;-81
2020/12/23 06:51:56;;;;;;;;;;;;;;;;;;6306543;22;20207;-81
2020/12/23 06:54:22;;;;;;;;;;;;;;;;;;6306394;22;19947;-82
2020/12/23 06:56:48;;;;;;;;;;;;;;;;;;6304769;22;20247;-82
2020/12/23 06:59:14;;;;;;;;;;;;;;;;;;6306503;22;19899;-81
2020/12/23 07:01:40;;;;;;;;;;;;;;;;;;6305926;22;19979;-82
2020/12/23 07:04:07;;;;;;;;;;;;;;;;;;6304982;22;19910;-81
2020/12/23 07:06:33;;;;;;;;;;;;;;;;;;6306351;22;20243;-82
2020/12/23 07:08:59;;;;;;;;;;;;;;;;;;6306383;22;19906;-81
2020/12/23 07:11:25;;;;;;;;;;;;;;;;;;6306059;22;20311;-82
2020/12/23 07:13:51;;;;;;;;;;;;;;;;;;6306333;22;19903;-81
2020/12/23 07:16:17;;;;;;;;;;;;;;;;;;6306077;22;19955;-81
2020/12/23 07:18:43;;;;;;;;;;;;;;;;;;6306294;22;19903;-81
2020/12/23 07:21:08;;;;;;;;;;;;;;;;;;6305629;22;19906;-81
2020/12/23 07:23:34;;;;;;;;;;;;;;;;;;6306156;22;19930;-81
2020/12/23 07:26:00;;;;;;;;;;;;;;;;;;6305813;22;20369;-80
2020/12/23 07:28:26;;;;;;;;;;;;;;;;;;6306273;22;20315;-81
2020/12/23 07:30:52;;;;;;;;;;;;;;;;;;6306699;22;20315;-82
2020/12/23 07:33:18;;;;;;;;;;;;;;;;;;6305598;22;19902;-81
2020/12/23 07:35:44;;;;;;;;;;;;;;;;;;6303824;22;19927;-81
2020/12/23 07:38:10;;;;;;;;;;;;;;;;;;6306018;22;19921;-81
2020/12/23 07:40:36;;;;;;;;;;;;;;;;;;6305474;22;20355;-83
2020/12/23 07:43:02;;;;;;;;;;;;;;;;;;6305972;22;19906;-78
2020/12/23 07:45:28;;;;;;;;;;;;;;;;;;6305640;22;19910;-81
2020/12/23 07:47:54;;;;;;;;;;;;;;;;;;6305827;22;19899;-82
2020/12/23 07:50:20;;;;;;;;;;;;;;;;;;6305859;22;19905;-81
2020/12/23 07:52:46;;;;;;;;;;;;;;;;;;6304259;22;19906;-84
2020/12/23 07:55:12;;;;;;;;;;;;;;;;;;6304824;22;19899;-83
2020/12/23 07:57:38;;;;;;;;;;;;;;;;;;6305710;22;19903;-84
2020/12/23 08:00:04;;;;;;;;;;;;;;;;;;6305789;22;19906;-84
2020/12/23 08:02:30;;;;;;;;;;;;;;;;;;6305596;22;19945;-82
2020/12/23 08:04:56;;;;;;;;;;;;;;;;;;6305973;22;19903;-82
2020/12/23 08:07:22;;;;;;;;;;;;;;;;;;6305250;22;19903;-81
2020/12/23 08:09:48;;;;;;;;;;;;;;;;;;6305794;22;19986;-82
2020/12/23 08:12:13;;;;;;;;;;;;;;;;;;6305692;22;19934;-82
2020/12/23 08:14:39;;;;;;;;;;;;;;;;;;6305893;22;20407;-81
2020/12/23 08:17:05;;;;;;;;;;;;;;;;;;6305956;22;19899;-82
2020/12/23 08:19:31;;;;;;;;;;;;;;;;;;6304503;22;19971;-82
2020/12/23 08:21:57;;;;;;;;;;;;;;;;;;6302455;22;19911;-82
2020/12/23 08:24:23;;;;;;;;;;;;;;;;;;6305398;22;19914;-82
2020/12/23 08:26:49;;;;;;;;;;;;;;;;;;6305627;22;20223;-82
2020/12/23 08:29:15;;;;;;;;;;;;;;;;;;6305003;22;19903;-82
2020/12/23 08:31:40;;;;;;;;;;;;;;;;;;6305501;22;19903;-82
2020/12/23 08:34:06;;;;;;;;;;;;;;;;;;6305275;22;19903;-82
2020/12/23 08:36:32;;;;;;;;;;;;;;;;;;6305163;22;19906;-82
2020/12/23 08:38:58;;;;;;;;;;;;;;;;;;6304881;22;19903;-82
2020/12/23 08:41:25;;;;;;;;;;;;;;;;;;6304152;22;19910;-82
2020/12/23 08:43:51;;;;;;;;;;;;;;;;;;6305579;22;19902;-82
2020/12/23 08:46:17;;;;;;;;;;;;;;;;;;6304627;22;19927;-82
2020/12/23 08:48:43;;;;;;;;;;;;;;;;;;6305138;22;19907;-82
2020/12/23 08:51:09;;;;;;;;;;;;;;;;;;6304062;22;19944;-82
2020/12/23 08:53:35;;;;;;;;;;;;;;;;;;6305039;22;19910;-82
2020/12/23 08:56:01;;;;;;;;;;;;;;;;;;6303358;22;19909;-81
2020/12/23 08:58:27;;;;;;;;;;;;;;;;;;6304342;22;20270;-82
2020/12/23 09:00:53;;;;;;;;;;;;;;;;;;6304955;22;20274;-81
2020/12/23 09:03:19;;;;;;;;;;;;;;;;;;6304742;22;19898;-80
2020/12/23 09:05:45;;;;;;;;;;;;;;;;;;6304746;22;19899;-81
2020/12/23 09:08:11;;;;;;;;;;;;;;;;;;6303903;22;19899;-79
2020/12/23 09:10:37;;;;;;;;;;;;;;;;;;6304291;22;20280;-80
2020/12/23 09:13:03;;;;;;;;;;;;;;;;;;6304606;22;19899;-80
2020/12/23 09:15:29;;;;;;;;;;;;;;;;;;6304493;22;20231;-81
2020/12/23 09:17:54;;;;;;;;;;;;;;;;;;6304440;22;19972;-81
2020/12/23 09:20:20;;;;;;;;;;;;;;;;;;6304464;22;19903;-81
2020/12/23 09:22:46;;;;;;;;;;;;;;;;;;6303322;22;19914;-81
2020/12/23 09:25:12;;;;;;;;;;;;;;;;;;6302777;22;19934;-81
2020/12/23 09:27:38;;;;;;;;;;;;;;;;;;6304611;22;19976;-81
2020/12/23 09:30:04;;;;;;;;;;;;;;;;;;6303977;22;19984;-81
2020/12/23 09:32:30;;;;;;;;;;;;;;;;;;6304305;22;19905;-80
2020/12/23 09:35:00;;;;;;;;;;;;;;;;;;6304973;22;19922;-82
2020/12/23 09:37:26;;;;;;;;;;;;;;;;;;6304947;22;20312;-81
2020/12/23 09:39:52;;;;;;;;;;;;;;;;;;6304423;22;19946;-82
2020/12/23 09:42:18;;;;;;;;;;;;;;;;;;6304449;22;19964;-82
2020/12/23 09:44:43;;;;;;;;;;;;;;;;;;6304474;22;20308;-82
2020/12/23 09:47:09;;;;;;;;;;;;;;;;;;6304682;22;19949;-80
2020/12/23 09:49:35;;;;;;;;;;;;;;;;;;6304113;22;20231;-80
2020/12/23 09:52:01;;;;;;;;;;;;;;;;;;6302171;22;19902;-80
2020/12/23 09:54:27;;;;;;;;;;;;;;;;;;6304051;22;20039;-80
2020/12/23 09:56:53;;;;;;;;;;;;;;;;;;6303730;22;19914;-80
2020/12/23 09:59:19;;;;;;;;;;;;;;;;;;6304275;22;19899;-79
2020/12/23 10:01:45;;;;;;;;;;;;;;;;;;6305592;22;20236;-79
2020/12/23 10:04:11;;;;;;;;;;;;;;;;;;6305584;22;19909;-80
2020/12/23 10:06:37;;;;;;;;;;;;;;;;;;6305690;22;20318;-80
2020/12/23 10:09:03;;;;;;;;;;;;;;;;;;6305368;22;19899;-79
2020/12/23 10:11:29;;;;;;;;;;;;;;;;;;6305810;22;19899;-80
2020/12/23 10:13:55;;;;;;;;;;;;;;;;;;6305527;22;19909;-80
2020/12/23 10:16:21;;;;;;;;;;;;;;;;;;6305264;22;19909;-81
2020/12/23 10:18:47;;;;;;;;;;;;;;;;;;6305681;22;19899;-85
2020/12/23 10:21:12;;;;;;;;;;;;;;;;;;6305654;22;19913;-82
2020/12/23 10:23:38;;;;;;;;;;;;;;;;;;6305321;22;19910;-83
2020/12/23 10:26:04;;;;;;;;;;;;;;;;;;6305818;22;19910;-86
2020/12/23 10:28:30;;;;;;;;;;;;;;;;;;6303821;22;20257;-83
2020/12/23 10:30:56;;;;;;;;;;;;;;;;;;6305883;22;20339;-85
2020/12/23 10:33:22;;;;;;;;;;;;;;;;;;6306054;22;19910;-80
2020/12/23 10:35:48;;;;;;;;;;;;;;;;;;6304323;22;20373;-79
2020/12/23 10:38:14;;;;;;;;;;;;;;;;;;6305273;22;20262;-79
2020/12/23 10:40:40;;;;;;;;;;;;;;;;;;6305406;22;19910;-78
2020/12/23 10:43:05;;;;;;;;;;;;;;;;;;6302289;22;19914;-78
2020/12/23 10:45:31;;;;;;;;;;;;;;;;;;6304025;22;19910;-80
2020/12/23 10:47:57;;;;;;;;;;;;;;;;;;6304078;22;19902;-80
2020/12/23 10:50:23;;;;;;;;;;;;;;;;;;6304175;22;19903;-80
2020/12/23 10:52:49;;;;;;;;;;;;;;;;;;6304570;22;19900;-79
2020/12/23 10:55:15;;;;;;;;;;;;;;;;;;6304182;22;19899;-79
2020/12/23 10:57:41;;;;;;;;;;;;;;;;;;6305960;22;19903;-81
2020/12/23 11:00:07;;;;;;;;;;;;;;;;;;6305332;22;19972;-80
2020/12/23 11:02:33;;;;;;;;;;;;;;;;;;6304291;22;19911;-79
2020/12/23 11:04:58;;;;;;;;;;;;;;;;;;6305463;22;19906;-79
2020/12/23 11:07:24;;;;;;;;;;;;;;;;;;6305497;22;19903;-79
2020/12/23 11:09:50;;;;;;;;;;;;;;;;;;6304398;22;19899;-80
2020/12/23 11:12:16;;;;;;;;;;;;;;;;;;6304695;22;20310;-80
2020/12/23 11:14:42;;;;;;;;;;;;;;;;;;6305474;22;19933;-80
2020/12/23 11:17:08;;;;;;;;;;;;;;;;;;6305235;22;20272;-82
2020/12/23 11:19:34;;;;;;;;;;;;;;;;;;6305265;22;19910;-79
2020/12/23 11:22:00;;;;;;;;;;;;;;;;;;6304826;22;19958;-77
2020/12/23 11:24:26;;;;;;;;;;;;;;;;;;6304785;22;19898;-79
2020/12/23 11:26:52;;;;;;;;;;;;;;;;;;6305822;22;19903;-79
2020/12/23 11:29:18;;;;;;;;;;;;;;;;;;6305348;22;19903;-79
2020/12/23 11:31:43;;;;;;;;;;;;;;;;;;6305835;22;19903;-79
2020/12/23 11:34:09;;;;;;;;;;;;;;;;;;6305581;22;19899;-80
2020/12/23 11:36:35;;;;;;;;;;;;;;;;;;6303723;22;20020;-79
2020/12/23 11:39:01;;;;;;;;;;;;;;;;;;6305236;22;19909;-79
2020/12/23 11:41:27;;;;;;;;;;;;;;;;;;6305551;22;19914;-82
2020/12/23 11:43:53;;;;;;;;;;;;;;;;;;6305795;22;19898;-86
2020/12/23 11:46:19;;;;;;;;;;;;;;;;;;6304842;22;20298;-86
2020/12/23 11:48:45;;;;;;;;;;;;;;;;;;6305698;22;19934;-86
2020/12/23 11:51:11;;;;;;;;;;;;;;;;;;6304643;22;19899;-86
2020/12/23 11:53:37;;;;;;;;;;;;;;;;;;6305485;22;19925;-86
2020/12/23 11:56:03;;;;;;;;;;;;;;;;;;6306071;22;19903;-86
2020/12/23 11:58:29;;;;;;;;;;;;;;;;;;6304901;22;19906;-85
2020/12/23 12:00:55;;;;;;;;;;;;;;;;;;6306338;22;19952;-85
2020/12/23 12:03:21;;;;;;;;;;;;;;;;;;6305718;22;19975;-85
2020/12/23 12:05:47;;;;;;;;;;;;;;;;;;6305565;22;19937;-84
2020/12/23 12:08:13;;;;;;;;;;;;;;;;;;6305968;22;20232;-83
2020/12/23 12:10:39;;;;;;;;;;;;;;;;;;6306333;22;19931;-84
2020/12/23 12:13:05;;;;;;;;;;;;;;;;;;6305361;22;20272;-84
2020/12/23 12:15:31;;;;;;;;;;;;;;;;;;6305491;22;20295;-85
2020/12/23 12:17:57;;;;;;;;;;;;;;;;;;6305780;22;19970;-83
2020/12/23 12:20:23;;;;;;;;;;;;;;;;;;6304958;22;19948;-83
2020/12/23 12:22:49;;;;;;;;;;;;;;;;;;6306398;22;20320;-95
2020/12/23 12:25:14;;;;;;;;;;;;;;;;;;6308875;22;19906;-83
2020/12/23 12:27:40;;;;;;;;;;;;;;;;;;6307421;22;19902;-84
2020/12/23 12:30:06;;;;;;;;;;;;;;;;;;6309157;22;19902;-85
2020/12/23 12:32:32;;;;;;;;;;;;;;;;;;6309224;22;19903;-84
2020/12/23 12:34:58;;;;;;;;;;;;;;;;;;6312038;22;19906;-84
2020/12/23 12:37:25;;;;;;;;;;;;;;;;;;6312895;22;19909;-84
2020/12/23 12:39:51;;;;;;;;;;;;;;;;;;6311507;22;19915;-84
2020/12/23 12:42:17;;;;;;;;;;;;;;;;;;6308732;22;19906;-84
2020/12/23 12:44:42;;;;;;;;;;;;;;;;;;6307110;22;19903;-82
2020/12/23 12:47:08;;;;;;;;;;;;;;;;;;6307045;22;19899;-83
2020/12/23 12:49:34;;;;;;;;;;;;;;;;;;6307955;22;19978;-84
2020/12/23 12:52:00;;;;;;;;;;;;;;;;;;6308539;22;19920;-84
2020/12/23 12:54:26;;;;;;;;;;;;;;;;;;6307838;22;19906;-84
2020/12/23 12:56:56;;;;;;;;;;;;;;;;;;6307227;22;20308;-84
2020/12/23 12:59:21;;;;;;;;;;;;;;;;;;6307968;22;20636;-84
2020/12/23 13:01:47;;;;;;;;;;;;;;;;;;6307164;22;19923;-86
2020/12/23 13:04:13;;;;;;;;;;;;;;;;;;6309564;22;20282;-87
2020/12/23 13:06:39;;;;;;;;;;;;;;;;;;6308249;22;20356;-85
2020/12/23 13:09:05;;;;;;;;;;;;;;;;;;6306363;22;19903;-85
2020/12/23 13:11:31;;;;;;;;;;;;;;;;;;6304534;22;20334;-84
2020/12/23 13:13:57;;;;;;;;;;;;;;;;;;6303721;22;20327;-84
2020/12/23 13:16:23;;;;;;;;;;;;;;;;;;6305604;22;19911;-84
2020/12/23 13:18:49;;;;;;;;;;;;;;;;;;6305514;22;19903;-85
2020/12/23 13:21:15;;;;;;;;;;;;;;;;;;6305579;22;19906;-86
2020/12/23 13:23:41;;;;;;;;;;;;;;;;;;6305460;22;19903;-85
2020/12/23 13:26:07;;;;;;;;;;;;;;;;;;6305234;22;20395;-86
2020/12/23 13:28:33;;;;;;;;;;;;;;;;;;6305277;22;19903;-86
2020/12/23 13:30:58;;;;;;;;;;;;;;;;;;6305059;22;20379;-86
2020/12/23 13:33:25;;;;;;;;;;;;;;;;;;6304835;22;19903;-85
2020/12/23 13:35:51;;;;;;;;;;;;;;;;;;6305508;22;20303;-85
2020/12/23 13:38:17;;;;;;;;;;;;;;;;;;6306438;22;19918;-85
2020/12/23 13:40:43;;;;;;;;;;;;;;;;;;6306885;22;20286;-86
2020/12/23 13:43:09;;;;;;;;;;;;;;;;;;6306463;22;19906;-87
2020/12/23 13:45:35;;;;;;;;;;;;;;;;;;6307073;22;19950;-87
2020/12/23 13:48:00;;;;;;;;;;;;;;;;;;6306033;22;19925;-86
2020/12/23 13:50:26;;;;;;;;;;;;;;;;;;6306555;22;19899;-86
2020/12/23 13:52:52;;;;;;;;;;;;;;;;;;6306234;22;19902;-85
2020/12/23 13:55:18;;;;;;;;;;;;;;;;;;6306657;22;19905;-85
2020/12/23 13:57:44;;;;;;;;;;;;;;;;;;6306819;22;19939;-85
2020/12/23 14:00:10;;;;;;;;;;;;;;;;;;6307438;22;20525;-85
2020/12/23 14:02:36;;;;;;;;;;;;;;;;;;6305320;22;19911;-84
2020/12/23 14:05:02;;;;;;;;;;;;;;;;;;6306269;22;19909;-85
2020/12/23 14:07:28;;;;;;;;;;;;;;;;;;6306900;22;19906;-83
2020/12/23 14:09:54;;;;;;;;;;;;;;;;;;6305773;22;19903;-84
2020/12/23 14:12:20;;;;;;;;;;;;;;;;;;6306940;22;19902;-87
2020/12/23 14:14:46;;;;;;;;;;;;;;;;;;6306054;22;20374;-83
2020/12/23 14:17:12;;;;;;;;;;;;;;;;;;6306707;22;19902;-88
2020/12/23 14:19:38;;;;;;;;;;;;;;;;;;6299225;22;20375;-84
2020/12/23 14:22:04;;;;;;;;;;;;;;;;;;6304560;22;19914;-85
2020/12/23 14:24:30;;;;;;;;;;;;;;;;;;6305610;22;19899;-85
2020/12/23 14:26:55;;;;;;;;;;;;;;;;;;6305391;22;19906;-84
2020/12/23 14:29:21;;;;;;;;;;;;;;;;;;6304956;22;19902;-84
2020/12/23 14:31:47;;;;;;;;;;;;;;;;;;6305739;22;20220;-85
2020/12/23 14:34:13;;;;;;;;;;;;;;;;;;6306109;22;19968;-85
2020/12/23 14:36:39;;;;;;;;;;;;;;;;;;6305865;22;19926;-86
2020/12/23 14:39:05;;;;;;;;;;;;;;;;;;6306180;22;19930;-87
2020/12/23 14:41:31;;;;;;;;;;;;;;;;;;6306091;22;20285;-88
2020/12/23 14:43:57;;;;;;;;;;;;;;;;;;6306143;22;20363;-87
2020/12/23 14:46:23;;;;;;;;;;;;;;;;;;6305249;22;19899;-87
2020/12/23 14:48:49;;;;;;;;;;;;;;;;;;6305506;22;19910;-86
2020/12/23 14:51:15;;;;;;;;;;;;;;;;;;6305729;22;19902;-86
2020/12/23 14:53:41;;;;;;;;;;;;;;;;;;6305636;22;19899;-87
2020/12/23 14:56:06;;;;;;;;;;;;;;;;;;6305443;22;20013;-87
2020/12/23 14:58:33;;;;;;;;;;;;;;;;;;6305252;22;19899;-85
2020/12/23 15:00:59;;;;;;;;;;;;;;;;;;6305558;22;20037;-86
2020/12/23 15:03:25;;;;;;;;;;;;;;;;;;6305095;22;19980;-86
2020/12/23 15:05:51;;;;;;;;;;;;;;;;;;6305321;22;19981;-86
2020/12/23 15:08:17;;;;;;;;;;;;;;;;;;6305454;22;19898;-87
2020/12/23 15:10:43;;;;;;;;;;;;;;;;;;6305887;22;20308;-85
2020/12/23 15:13:10;;;;;;;;;;;;;;;;;;6308174;22;19930;-87
2020/12/23 15:15:36;;;;;;;;;;;;;;;;;;6308676;22;20136;-82
2020/12/23 15:18:02;;;;;;;;;;;;;;;;;;6305919;22;19906;-84
2020/12/23 15:20:27;;;;;;;;;;;;;;;;;;6306859;22;19974;-85
2020/12/23 15:22:53;;;;;;;;;;;;;;;;;;6306574;22;19906;-84
2020/12/23 15:25:21;;;;;;;;;;;;;;;;;;6308802;22;19906;-85
2020/12/23 15:27:47;;;;;;;;;;;;;;;;;;6307687;22;19899;-86
2020/12/23 15:30:13;;;;;;;;;;;;;;;;;;6304997;22;19906;-84
2020/12/23 15:32:39;;;;;;;;;;;;;;;;;;6307230;22;20041;-84
2020/12/23 15:35:04;;;;;;;;;;;;;;;;;;6308206;22;19909;-84
2020/12/23 15:37:30;;;;;;;;;;;;;;;;;;6303802;22;19899;-85
2020/12/23 15:39:56;;;;;;;;;;;;;;;;;;6311231;22;19911;-84
2020/12/23 15:42:22;;;;;;;;;;;;;;;;;;6308929;22;19911;-84
2020/12/23 15:44:49;;;;;;;;;;;;;;;;;;6309691;22;19915;-88
2020/12/23 15:47:15;;;;;;;;;;;;;;;;;;6312689;22;19910;-89
2020/12/23 15:49:40;;;;;;;;;;;;;;;;;;6313646;22;19899;-88
2020/12/23 15:52:06;;;;;;;;;;;;;;;;;;6315471;22;20437;-86
2020/12/23 15:54:32;;;;;;;;;;;;;;;;;;6306447;22;19899;-83
2020/12/23 15:56:58;;;;;;;;;;;;;;;;;;6303863;22;19898;-84
2020/12/23 15:59:24;;;;;;;;;;;;;;;;;;6306672;22;19903;-83
2020/12/23 16:01:50;;;;;;;;;;;;;;;;;;6307836;22;19910;-86
2020/12/23 16:04:17;;;;;;;;;;;;;;;;;;6305958;22;19903;-88
2020/12/23 16:06:43;;;;;;;;;;;;;;;;;;6305032;22;19899;-85
2020/12/23 16:09:09;;;;;;;;;;;;;;;;;;6304942;22;19899;-89
2020/12/23 16:11:35;;;;;;;;;;;;;;;;;;6304045;22;20311;-81
2020/12/23 16:14:00;;;;;;;;;;;;;;;;;;6303764;22;19926;-81
2020/12/23 16:16:26;;;;;;;;;;;;;;;;;;6304408;22;19899;-82
2020/12/23 16:18:52;;;;;;;;;;;;;;;;;;6303951;22;20240;-82
2020/12/23 16:21:18;;;;;;;;;;;;;;;;;;6303861;22;19903;-82
2020/12/23 16:23:44;;;;;;;;;;;;;;;;;;6304999;22;19926;-81
2020/12/23 16:26:10;;;;;;;;;;;;;;;;;;6304315;22;20231;-81
2020/12/23 16:28:36;;;;;;;;;;;;;;;;;;6304159;22;19906;-82
2020/12/23 16:31:02;;;;;;;;;;;;;;;;;;6304260;22;20367;-82
2020/12/23 16:33:28;;;;;;;;;;;;;;;;;;6304184;22;20519;-81
2020/12/23 16:35:53;;;;;;;;;;;;;;;;;;6304167;22;19930;-81